| time (UTC) | temp F | wind direction | speed MPH | gust MPH | rain 1hr in | rain 24hr in | rain mn in | humidity % | barometer mb |
| 20260505212504 | 61 | 355 | 9.0 | 0.0 | 0.00 | 0.00 | 0.21 | 58 | 997.2 |
| 20260505212007 | 62 | 326 | 8.0 | 0.0 | 0.00 | 0.00 | 0.21 | 61 | 997.2 |
| 20260505211508 | 63 | 311 | 9.0 | 0.0 | 0.00 | 0.00 | 0.21 | 62 | 997.0 |
| 20260505211010 | 64 | 323 | 9.0 | 0.0 | 0.00 | 0.00 | 0.21 | 64 | 996.8 |
| 20260505210518 | 66 | 304 | 10.0 | 0.0 | 0.00 | 0.00 | 0.20 | 65 | 996.8 |
| 20260505210052 | 67 | 291 | 12.0 | 0.0 | 0.00 | 0.00 | 0.20 | 65 | 996.4 |
| 20260505205518 | 68 | 271 | 11.0 | 0.0 | 0.00 | 0.00 | 0.20 | 64 | 996.2 |
| 20260505205014 | 68 | 292 | 11.0 | 0.0 | 0.00 | 0.00 | 0.20 | 65 | 995.1 |
| 20260505204504 | 68 | 245 | 12.0 | 0.0 | 0.00 | 0.00 | 0.20 | 65 | 995.2 |
| 20260505202612 | 68 | 236 | 10.0 | 0.0 | 0.00 | 0.00 | 0.20 | 65 | 995.4 |
| 20260505202103 | 68 | 261 | 10.0 | 0.0 | 0.00 | 0.00 | 0.20 | 65 | 995.7 |
| 20260505201550 | 68 | 229 | 9.0 | 0.0 | 0.00 | 0.00 | 0.20 | 65 | 995.5 |
| 20260505201017 | 68 | 261 | 8.0 | 0.0 | 0.00 | 0.00 | 0.20 | 65 | 995.6 |
| 20260505200556 | 68 | 260 | 8.0 | 0.0 | 0.00 | 0.00 | 0.20 | 65 | 995.7 |
| 20260505200005 | 68 | 278 | 7.0 | 0.0 | 0.00 | 0.00 | 0.20 | 64 | 995.6 |
| 20260505195106 | 68 | 272 | 7.0 | 0.0 | 0.00 | 0.00 | 0.19 | 63 | 995.9 |
| 20260505194613 | 68 | 258 | 6.0 | 0.0 | 0.00 | 0.00 | 0.19 | 63 | 996.0 |
| 20260505194102 | 68 | 242 | 6.0 | 0.0 | 0.00 | 0.00 | 0.19 | 62 | 996.3 |
| 20260505193600 | 68 | 257 | 7.0 | 0.0 | 0.00 | 0.00 | 0.19 | 62 | 996.2 |
| 20260505193015 | 67 | 228 | 7.0 | 0.0 | 0.00 | 0.00 | 0.19 | 58 | 996.3 |
| 20260505192514 | 66 | 286 | 5.0 | 0.0 | 0.00 | 0.00 | 0.19 | 56 | 996.3 |
| 20260505192013 | 65 | 252 | 4.0 | 0.0 | 0.00 | 0.00 | 0.19 | 53 | 996.5 |
| 20260505191512 | 64 | 229 | 3.0 | 0.0 | 0.00 | 0.00 | 0.19 | 50 | 996.6 |
| 20260505191049 | 63 | 198 | 2.0 | 0.0 | 0.00 | 0.00 | 0.19 | 48 | 996.7 |
| 20260505190545 | 62 | 221 | 3.0 | 0.0 | 0.00 | 0.00 | 0.19 | 47 | 996.8 |
| 20260505190006 | 62 | 226 | 5.0 | 0.0 | 0.00 | 0.00 | 0.19 | 41 | 996.9 |
| 20260505185506 | 61 | 240 | 3.0 | 0.0 | 0.00 | 0.00 | 0.19 | 35 | 996.9 |
| 20260505185005 | 61 | 186 | 1.0 | 0.0 | 0.00 | 0.00 | 0.19 | 33 | 997.0 |
| 20260505184502 | 60 | 186 | 1.0 | 0.0 | 0.00 | 0.00 | 0.19 | 32 | 997.1 |
| 20260505184007 | 60 | 186 | 1.0 | 0.0 | 0.00 | 0.00 | 0.19 | 32 | 997.0 |
| 20260505183504 | 59 | 314 | 1.0 | 0.0 | 0.00 | 0.00 | 0.19 | 32 | 997.1 |
| 20260505183008 | 59 | 315 | 1.0 | 0.0 | 0.00 | 0.00 | 0.19 | 33 | 997.2 |
| 20260505182547 | 58 | 315 | 1.0 | 0.0 | 0.00 | 0.00 | 0.19 | 33 | 997.3 |
| 20260505182056 | 59 | 315 | 0.0 | 0.0 | 0.00 | 0.00 | 0.19 | 32 | 997.4 |
| 20260505181602 | 58 | 315 | 0.0 | 0.0 | 0.00 | 0.00 | 0.19 | 32 | 997.5 |
| 20260505175004 | 56 | 315 | 0.0 | 0.0 | 0.00 | 0.00 | 0.19 | 35 | 997.6 |
| 20260505174506 | 56 | 315 | 0.0 | 0.0 | 0.00 | 0.00 | 0.19 | 36 | 997.8 |
| 20260505174005 | 56 | 315 | 0.0 | 0.0 | 0.00 | 0.00 | 0.19 | 37 | 997.9 |
| 20260505173512 | 56 | 315 | 0.0 | 0.0 | 0.00 | 0.00 | 0.18 | 38 | 998.0 |
| 20260505173021 | 56 | 315 | 0.0 | 0.0 | 0.00 | 0.00 | 0.16 | 39 | 997.9 |
| 20260505172513 | 56 | 315 | 0.0 | 0.0 | 0.00 | 0.00 | 0.15 | 39 | 997.7 |
| 20260505172016 | 56 | 321 | 1.0 | 0.0 | 0.00 | 0.00 | 0.13 | 40 | 997.8 |
| 20260505171556 | 56 | 321 | 2.0 | 0.0 | 0.00 | 0.00 | 0.13 | 41 | 997.7 |
| 20260505171058 | 56 | 320 | 2.0 | 0.0 | 0.00 | 0.00 | 0.13 | 43 | 997.8 |
| 20260505170601 | 56 | 314 | 2.0 | 0.0 | 0.00 | 0.00 | 0.13 | 44 | 998.0 |
| 20260505170105 | 57 | 325 | 1.0 | 0.0 | 0.00 | 0.00 | 0.13 | 46 | 997.8 |
| 20260505165601 | 57 | 325 | 1.0 | 0.0 | 0.00 | 0.00 | 0.11 | 49 | 998.0 |
| 20260505165102 | 58 | 291 | 2.0 | 0.0 | 0.00 | 0.00 | 0.11 | 51 | 998.0 |
| 20260505164606 | 58 | 265 | 3.0 | 0.0 | 0.00 | 0.00 | 0.11 | 54 | 998.0 |
| 20260505163009 | 62 | 277 | 8.0 | 0.0 | 0.00 | 0.00 | 0.06 | 64 | 998.3 |
| 20260505162508 | 62 | 262 | 7.0 | 0.0 | 0.00 | 0.00 | 0.00 | 65 | 998.3 |
| 20260505162012 | 62 | 276 | 6.0 | 0.0 | 0.00 | 0.00 | 0.00 | 65 | 998.2 |
| 20260505161511 | 63 | 275 | 7.0 | 0.0 | 0.00 | 0.00 | 0.00 | 66 | 998.2 |
| 20260505161014 | 63 | 245 | 8.0 | 0.0 | 0.00 | 0.00 | 0.00 | 66 | 998.3 |
| 20260505160544 | 63 | 233 | 8.0 | 0.0 | 0.00 | 0.00 | 0.00 | 66 | 998.4 |
| 20260505153116 | 67 | 219 | 6.0 | 0.0 | 0.00 | 0.00 | 0.00 | 63 | 998.2 |
| 20260505152601 | 67 | 276 | 5.0 | 0.0 | 0.00 | 0.00 | 0.00 | 60 | 998.1 |
| 20260505140503 | 60 | 112 | 1.0 | 0.0 | 0.00 | 0.00 | 0.00 | 63 | 998.9 |
| 20260505123514 | 53 | 112 | 0.0 | 0.0 | 0.00 | 0.00 | 0.00 | 67 | 999.4 |
| 20260505123019 | 53 | 111 | 0.0 | 0.0 | 0.00 | 0.00 | 0.00 | 67 | 999.5 |
| 20260505122602 | 53 | 112 | 0.0 | 0.0 | 0.00 | 0.00 | 0.00 | 67 | 999.5 |
| 20260505120542 | 51 | 111 | 1.0 | 0.0 | 0.00 | 0.00 | 0.00 | 66 | 999.8 |
| 20260505120053 | 51 | 111 | 1.0 | 0.0 | 0.00 | 0.00 | 0.00 | 65 | 999.9 |
| 20260505115605 | 50 | 44 | 0.0 | 0.0 | 0.00 | 0.00 | 0.00 | 64 | 999.9 |
| 20260505115108 | 50 | 44 | 0.0 | 0.0 | 0.00 | 0.00 | 0.00 | 62 | 999.9 |
| 20260505114006 | 48 | 44 | 0.0 | 0.0 | 0.00 | 0.00 | 0.00 | 55 | 999.9 |
| 20260505113515 | 47 | 44 | 0.0 | 0.0 | 0.00 | 0.00 | 0.00 | 54 | 999.9 |
| 20260505113100 | 46 | 44 | 0.0 | 0.0 | 0.00 | 0.00 | 0.00 | 53 | 999.9 |
| 20260505111549 | 44 | 44 | 0.0 | 0.0 | 0.00 | 0.00 | 0.00 | 46 | 1000.1 |
| 20260505111049 | 43 | 44 | 0.0 | 0.0 | 0.00 | 0.00 | 0.00 | 46 | 1000.1 |
| 20260505110558 | 42 | 44 | 0.0 | 0.0 | 0.00 | 0.00 | 0.00 | 46 | 1000.0 |
| 20260505110110 | 42 | 44 | 0.0 | 0.0 | 0.00 | 0.00 | 0.00 | 45 | 1000.1 |
| 20260505102005 | 39 | 44 | 1.0 | 0.0 | 0.00 | 0.00 | 0.00 | 45 | 1000.1 |
| 20260505101609 | 39 | 45 | 2.0 | 0.0 | 0.00 | 0.00 | 0.00 | 45 | 1000.1 |
| 20260505033511 | 43 | 53 | 1.0 | 0.0 | 0.00 | 0.00 | 0.06 | 61 | 1003.1 |
| 20260505033056 | 43 | 53 | 1.0 | 0.0 | 0.00 | 0.00 | 0.06 | 61 | 1003.1 |
| 20260505032011 | 43 | 53 | 1.0 | 0.0 | 0.00 | 0.00 | 0.06 | 62 | 1002.9 |
| 20260505031617 | 43 | 53 | 1.0 | 0.0 | 0.00 | 0.00 | 0.06 | 62 | 1003.1 |
| 20260505031002 | 44 | 53 | 0.0 | 0.0 | 0.00 | 0.00 | 0.06 | 62 | 1003.1 |
| 20260505030556 | 44 | 53 | 0.0 | 0.0 | 0.00 | 0.00 | 0.06 | 62 | 1003.2 |
| 20260505030114 | 44 | 53 | 1.0 | 0.0 | 0.00 | 0.00 | 0.06 | 62 | 1003.3 |
| 20260505025517 | 44 | 53 | 1.0 | 0.0 | 0.00 | 0.00 | 0.06 | 62 | 1003.3 |
| 20260505025104 | 44 | 53 | 2.0 | 0.0 | 0.00 | 0.00 | 0.06 | 62 | 1003.3 |
| 20260505024513 | 44 | 55 | 2.0 | 0.0 | 0.00 | 0.00 | 0.06 | 62 | 1003.2 |
| 20260505024054 | 44 | 49 | 2.0 | 0.0 | 0.00 | 0.00 | 0.06 | 62 | 1003.2 |
| 20260505023616 | 44 | 48 | 3.0 | 0.0 | 0.00 | 0.00 | 0.06 | 62 | 1003.3 |
| 20260505023044 | 43 | 49 | 2.0 | 0.0 | 0.00 | 0.00 | 0.06 | 62 | 1003.3 |
| 20260505022606 | 43 | 51 | 2.0 | 0.0 | 0.00 | 0.00 | 0.06 | 62 | 1003.4 |
| 20260505022006 | 43 | 48 | 2.0 | 0.0 | 0.00 | 0.00 | 0.06 | 62 | 1003.5 |
| 20260505021611 | 43 | 49 | 2.0 | 0.0 | 0.00 | 0.00 | 0.06 | 63 | 1003.5 |
| 20260505020543 | 43 | 47 | 2.0 | 0.0 | 0.00 | 0.00 | 0.06 | 63 | 1003.6 |
| 20260505015502 | 44 | 74 | 1.0 | 0.0 | 0.00 | 0.00 | 0.06 | 64 | 1003.6 |
| 20260505015052 | 44 | 74 | 1.0 | 0.0 | 0.00 | 0.00 | 0.06 | 64 | 1003.6 |
| 20260505014013 | 44 | 74 | 2.0 | 0.0 | 0.00 | 0.00 | 0.06 | 65 | 1003.7 |
| 20260505013603 | 44 | 62 | 2.0 | 0.0 | 0.00 | 0.00 | 0.06 | 65 | 1003.8 |
| 20260505013004 | 44 | 64 | 2.0 | 0.0 | 0.00 | 0.00 | 0.06 | 65 | 1003.8 |
| 20260505012552 | 44 | 61 | 2.0 | 0.0 | 0.00 | 0.00 | 0.06 | 65 | 1003.7 |
| 20260505011550 | 45 | 17 | 2.0 | 0.0 | 0.00 | 0.00 | 0.06 | 66 | 1003.7 |
| 20260505011104 | 45 | 13 | 2.0 | 0.0 | 0.00 | 0.00 | 0.06 | 66 | 1003.8 |
| 20260505010503 | 45 | 260 | 1.0 | 0.0 | 0.00 | 0.00 | 0.06 | 67 | 1003.9 |
| 20260505010054 | 45 | 260 | 0.0 | 0.0 | 0.00 | 0.00 | 0.06 | 67 | 1003.9 |
| 20260505005617 | 45 | 260 | 0.0 | 0.0 | 0.00 | 0.00 | 0.06 | 67 | 1003.9 |
| 20260505005042 | 45 | 260 | 0.0 | 0.0 | 0.00 | 0.00 | 0.06 | 67 | 1003.9 |
| 20260505004606 | 45 | 260 | 0.0 | 0.0 | 0.00 | 0.00 | 0.06 | 67 | 1003.8 |
| 20260505004003 | 45 | 260 | 0.0 | 0.0 | 0.00 | 0.00 | 0.06 | 68 | 1003.7 |
| 20260505003553 | 46 | 260 | 0.0 | 0.0 | 0.00 | 0.00 | 0.06 | 68 | 1003.7 |
| 20260505002516 | 46 | 260 | 0.0 | 0.0 | 0.00 | 0.00 | 0.06 | 69 | 1003.5 |
| 20260505002106 | 46 | 260 | 0.0 | 0.0 | 0.00 | 0.00 | 0.06 | 69 | 1003.4 |
| 20260505001536 | 47 | 260 | 0.0 | 0.0 | 0.00 | 0.00 | 0.06 | 69 | 1003.4 |
| 20260505001056 | 47 | 260 | 0.0 | 0.0 | 0.00 | 0.00 | 0.06 | 69 | 1003.4 |
| 20260505000046 | 47 | 260 | 0.0 | 0.0 | 0.00 | 0.00 | 0.06 | 69 | 1003.2 |
| 20260504235611 | 48 | 260 | 0.0 | 0.0 | 0.00 | 0.00 | 0.06 | 69 | 1003.3 |
| 20260504235008 | 48 | 260 | 1.0 | 0.0 | 0.00 | 0.00 | 0.06 | 69 | 1003.3 |
| 20260504234556 | 48 | 260 | 1.0 | 0.0 | 0.00 | 0.00 | 0.06 | 69 | 1003.3 |
| 20260504233545 | 49 | 260 | 1.0 | 0.0 | 0.00 | 0.00 | 0.06 | 69 | 1003.2 |
| 20260504233108 | 49 | 260 | 1.0 | 0.0 | 0.00 | 0.00 | 0.06 | 69 | 1003.2 |
| 20260504232508 | 49 | 260 | 2.0 | 0.0 | 0.00 | 0.00 | 0.06 | 69 | 1003.0 |
| 20260504232057 | 49 | 261 | 2.0 | 0.0 | 0.00 | 0.00 | 0.06 | 69 | 1003.0 |
| 20260504231621 | 49 | 279 | 2.0 | 0.0 | 0.00 | 0.00 | 0.06 | 69 | 1003.0 |
| 20260504231047 | 49 | 261 | 2.0 | 0.0 | 0.00 | 0.00 | 0.06 | 69 | 1003.1 |
| 20260504230607 | 49 | 242 | 3.0 | 0.0 | 0.00 | 0.00 | 0.06 | 69 | 1003.1 |
| 20260504230036 | 49 | 248 | 3.0 | 0.0 | 0.00 | 0.00 | 0.06 | 69 | 1003.0 |
| 20260504225557 | 49 | 252 | 3.0 | 0.0 | 0.00 | 0.00 | 0.06 | 69 | 1003.0 |
| 20260504224522 | 49 | 265 | 4.0 | 0.0 | 0.00 | 0.00 | 0.06 | 69 | 1002.8 |
| 20260504224109 | 49 | 232 | 4.0 | 0.0 | 0.00 | 0.00 | 0.06 | 69 | 1002.7 |
| 20260504223509 | 49 | 249 | 5.0 | 0.0 | 0.00 | 0.00 | 0.06 | 69 | 1002.8 |
| 20260504223103 | 49 | 276 | 4.0 | 0.0 | 0.00 | 0.00 | 0.06 | 69 | 1002.8 |
| 20260504222618 | 50 | 232 | 5.0 | 0.0 | 0.00 | 0.00 | 0.06 | 69 | 1002.8 |
| 20260504222049 | 50 | 238 | 6.0 | 0.0 | 0.00 | 0.00 | 0.06 | 69 | 1002.7 |
| 20260504221004 | 51 | 226 | 4.0 | 0.0 | 0.00 | 0.00 | 0.06 | 68 | 1002.8 |
| 20260504220553 | 51 | 234 | 4.0 | 0.0 | 0.00 | 0.00 | 0.06 | 68 | 1002.7 |
| 20260504215515 | 51 | 225 | 4.0 | 0.0 | 0.00 | 0.00 | 0.06 | 68 | 1002.6 |
| 20260504215104 | 51 | 256 | 3.0 | 0.0 | 0.00 | 0.00 | 0.06 | 68 | 1002.6 |
| 20260504214502 | 51 | 246 | 3.0 | 0.0 | 0.00 | 0.00 | 0.06 | 68 | 1002.5 |
| 20260504214051 | 51 | 264 | 4.0 | 0.0 | 0.00 | 0.00 | 0.06 | 68 | 1002.5 |
| 20260504213613 | 51 | 300 | 4.0 | 0.0 | 0.00 | 0.00 | 0.06 | 68 | 1002.7 |